KHQZ

Details ICAO KHQZ
Name MESQUITE METRO
Region United States
Timezone America/Chicago (UTC-6.0)
Plans Departing 11
Arriving 7
Stats Elevation 447 ft / 136 m (AMSL)
Location 32.746963° -96.530419°
Runways 1
Magnetic Variation 3.129° E
Sunrise 2017-12-11 13:19:58 UTC / 2017-12-11 07:19:58 Local
Sunset 2017-12-11 23:21:56 UTC / 2017-12-11 17:21:56 Local
Advertisement - Login to hide

Runways

ID Width Length Bearing (true) Bearing (mag) Surface Threshold Offset Overrun Length
17 100 ft / 30 m 6,017 ft / 1,834 m 180.88° 177.75° Concrete 0 ft / 0 m 0 ft / 0 m
35 100 ft / 30 m 6,017 ft / 1,834 m 0.88° 357.75° Concrete 0 ft / 0 m 0 ft / 0 m

Approach Navaids

Runway Type Ident Frequency Range Bearing (true) Bearing (mag) Slope Elevation
17 Localiser IHQZ 109.75 MHz 18 nm / 33 km 180.88° 177.75° - 447 ft / 136 m (AMSL)
17 Glidescope IHQZ 109.75 MHz 10 nm / 19 km 180.88° 177.75° 3.00° 447 ft / 136 m (AMSL)
17 DME IHQZ 109.75 MHz 18 nm / 33 km - - - 447 ft / 136 m (AMSL)

Map

Weather


0- 5 10 15 20 25 30 35+ Temperature / ° C

Clouds and Precipitation
Forecast for 2017-12-11 12:00 UTC. Updated an hour ago

Ground ~20,000 ft ~40,000 ft Winds

METAR

KHQZ 110755Z AUTO 00000KT 10SM CLR 04/M05 A3028 RMK AO1 T00441050

TAF

Not found

Frequencies

Recorded 118.17 MHz AWOS 3
Approach 125.20 MHz REGIONAL APP/DEP
Unicom 123.05 MHz CTAF/UNICOM
Warning: Do not use this data for real-world aviation or navigation. No guarantee of current accuracy is given.